Time,TemperatureF,DewpointF,PressureIn,WindDirection,WindDirectionDegrees,WindSpeedMPH,WindSpeedGustMPH,Humidity,HourlyPrecipIn,Conditions,Clouds,dailyrainin,SoftwareType,DateUTC
2013-01-13 00:03:00,19.2,-8.5,29.98,NNE,12,0.0,0.0,28,0.00,,---,0.00,VWS V14.00,2013-01-13 07:03:00,
2013-01-13 00:08:00,19.2,-8.5,29.98,NNE,12,0.0,0.0,28,0.00,,---,0.00,VWS V14.00,2013-01-13 07:08:00,
2013-01-13 00:13:00,19.2,-8.5,29.98,NNE,12,0.0,0.0,28,0.00,,---,0.00,VWS V14.00,2013-01-13 07:13:00,
2013-01-13 00:18:00,19.2,-8.5,29.98,NNE,12,0.0,0.0,28,0.00,,---,0.00,VWS V14.00,2013-01-13 07:18:00,
2013-01-13 00:23:00,19.0,-8.7,29.98,NNE,12,0.0,0.0,28,0.00,,---,0.00,VWS V14.00,2013-01-13 07:23:00,
2013-01-13 00:28:00,18.9,-7.4,29.98,NNE,12,0.0,0.0,30,0.00,,---,0.00,VWS V14.00,2013-01-13 07:28:00,
2013-01-13 00:33:00,18.7,-7.6,29.98,NNE,12,0.0,0.0,30,0.00,,---,0.00,VWS V14.00,2013-01-13 07:33:00,
2013-01-13 00:38:00,18.5,-7.8,29.98,NNE,12,0.0,0.0,30,0.00,,---,0.00,VWS V14.00,2013-01-13 07:38:00,
2013-01-13 00:43:00,18.1,-8.1,29.98,NNE,12,0.0,0.0,30,0.00,,---,0.00,VWS V14.00,2013-01-13 07:43:00,
2013-01-13 00:48:00,17.6,-7.9,29.98,NNE,12,0.0,0.0,31,0.00,,---,0.00,VWS V14.00,2013-01-13 07:48:00,
2013-01-13 00:53:00,17.2,-8.2,29.98,NNE,12,0.0,0.0,31,0.00,,---,0.00,VWS V14.00,2013-01-13 07:53:00,
2013-01-13 00:58:00,17.1,-8.4,29.98,NNE,12,0.0,0.0,31,0.00,,---,0.00,VWS V14.00,2013-01-13 07:58:00,
2013-01-13 01:03:00,16.9,-8.5,29.98,NNE,12,0.0,0.0,31,0.00,,---,0.00,VWS V14.00,2013-01-13 08:03:00,
2013-01-13 01:08:00,16.5,-8.8,29.98,NNE,12,0.0,0.0,31,0.00,,---,0.00,VWS V14.00,2013-01-13 08:08:00,
2013-01-13 01:12:00,16.2,-7.9,29.98,NNE,12,0.0,0.0,33,0.00,,---,0.00,VWS V14.00,2013-01-13 08:12:00,
2013-01-13 01:17:00,16.0,-8.0,29.98,NNE,12,0.0,0.0,33,0.00,,---,0.00,VWS V14.00,2013-01-13 08:17:00,
2013-01-13 01:22:00,16.0,-8.0,29.98,NNE,12,0.0,0.0,33,0.00,,---,0.00,VWS V14.00,2013-01-13 08:22:00,
2013-01-13 01:27:00,16.2,-7.3,29.98,NNE,12,0.0,0.0,34,0.00,,---,0.00,VWS V14.00,2013-01-13 08:27:00,
2013-01-13 01:32:00,16.0,-7.4,29.98,NNE,12,0.0,0.0,34,0.00,,---,0.00,VWS V14.00,2013-01-13 08:32:00,
2013-01-13 01:37:00,15.8,-7.6,29.98,NNE,12,0.0,0.0,34,0.00,,---,0.00,VWS V14.00,2013-01-13 08:37:00,
2013-01-13 01:42:00,15.8,-7.6,29.98,NNE,12,0.0,0.0,34,0.00,,---,0.00,VWS V14.00,2013-01-13 08:42:00,
2013-01-13 01:47:00,15.8,-7.6,29.98,NNE,12,0.0,0.0,34,0.00,,---,0.00,VWS V14.00,2013-01-13 08:47:00,
2013-01-13 01:52:00,15.6,-7.8,29.98,NNE,12,0.0,0.0,34,0.00,,---,0.00,VWS V14.00,2013-01-13 08:52:00,
2013-01-13 01:57:00,15.6,-7.2,29.98,NNE,12,0.0,0.0,35,0.00,,---,0.00,VWS V14.00,2013-01-13 08:57:00,
2013-01-13 02:02:00,15.4,-7.3,29.98,NNE,12,0.0,0.0,35,0.00,,---,0.00,VWS V14.00,2013-01-13 09:02:00,
2013-01-13 02:07:00,15.3,-7.5,29.98,NNE,12,0.0,0.0,35,0.00,,---,0.00,VWS V14.00,2013-01-13 09:07:00,
2013-01-13 02:12:00,15.1,-7.6,29.98,NNE,12,0.0,0.0,35,0.00,,---,0.00,VWS V14.00,2013-01-13 09:12:00,
2013-01-13 02:17:00,15.3,-7.5,29.98,NNE,12,0.0,0.0,35,0.00,,---,0.00,VWS V14.00,2013-01-13 09:17:00,
2013-01-13 02:22:00,15.4,-7.3,29.98,NNE,12,0.0,0.0,35,0.00,,---,0.00,VWS V14.00,2013-01-13 09:22:00,
2013-01-13 02:27:00,15.6,-7.2,29.98,NNE,12,0.0,0.0,35,0.00,,---,0.00,VWS V14.00,2013-01-13 09:27:00,
2013-01-13 02:32:00,15.6,-6.6,29.98,NNE,12,0.0,0.0,36,0.00,,---,0.00,VWS V14.00,2013-01-13 09:32:00,
2013-01-13 02:37:00,15.4,-6.7,29.98,NNE,12,0.0,0.0,36,0.00,,---,0.00,VWS V14.00,2013-01-13 09:37:00,
2013-01-13 02:42:00,15.3,-6.9,29.98,NNE,12,0.0,0.0,36,0.00,,---,0.00,VWS V14.00,2013-01-13 09:42:00,
2013-01-13 02:47:00,15.1,-7.1,29.98,NNE,12,0.0,0.0,36,0.00,,---,0.00,VWS V14.00,2013-01-13 09:47:00,
2013-01-13 02:52:00,15.1,-7.1,29.98,NNE,12,0.0,0.0,36,0.00,,---,0.00,VWS V14.00,2013-01-13 09:52:00,
2013-01-13 02:57:00,15.1,-6.5,29.98,NNE,12,0.0,0.0,37,0.00,,---,0.00,VWS V14.00,2013-01-13 09:57:00,
2013-01-13 03:02:00,15.1,-6.5,29.98,NNE,12,0.0,0.0,37,0.00,,---,0.00,VWS V14.00,2013-01-13 10:02:00,
2013-01-13 03:07:00,15.1,-6.5,29.98,NNE,12,0.0,0.0,37,0.00,,---,0.00,VWS V14.00,2013-01-13 10:07:00,
2013-01-13 03:12:00,15.4,-6.2,29.98,NNE,12,0.0,0.0,37,0.00,,---,0.00,VWS V14.00,2013-01-13 10:12:00,
2013-01-13 03:17:00,15.6,-5.5,29.98,NNE,12,0.0,0.0,38,0.00,,---,0.00,VWS V14.00,2013-01-13 10:17:00,
2013-01-13 03:22:00,15.6,-5.5,29.98,NNE,12,0.0,0.0,38,0.00,,---,0.00,VWS V14.00,2013-01-13 10:22:00,
2013-01-13 03:27:00,15.4,-5.6,29.98,NNE,12,0.0,0.0,38,0.00,,---,0.00,VWS V14.00,2013-01-13 10:27:00,
2013-01-13 03:32:00,15.6,-5.5,29.98,NNE,12,0.0,0.0,38,0.00,,---,0.00,VWS V14.00,2013-01-13 10:32:00,
2013-01-13 03:37:00,15.8,-4.8,29.98,NNE,12,0.0,0.0,39,0.00,,---,0.00,VWS V14.00,2013-01-13 10:37:00,
2013-01-13 03:42:00,15.8,-4.8,29.98,NNE,12,0.0,0.0,39,0.00,,---,0.00,VWS V14.00,2013-01-13 10:42:00,
2013-01-13 03:47:00,15.8,-4.8,29.98,NNE,12,0.0,0.0,39,0.00,,---,0.00,VWS V14.00,2013-01-13 10:47:00,
2013-01-13 03:52:00,15.6,-4.9,29.98,NNE,12,0.0,0.0,39,0.00,,---,0.00,VWS V14.00,2013-01-13 10:52:00,
2013-01-13 03:57:00,15.4,-5.1,29.98,NNE,12,0.0,0.0,39,0.00,,---,0.00,VWS V14.00,2013-01-13 10:57:00,
2013-01-13 04:02:00,15.4,-5.1,29.98,NNE,12,0.0,0.0,39,0.00,,---,0.00,VWS V14.00,2013-01-13 11:02:00,
2013-01-13 04:07:00,15.3,-5.2,29.98,NNE,12,0.0,0.0,39,0.00,,---,0.00,VWS V14.00,2013-01-13 11:07:00,
2013-01-13 04:12:00,15.1,-4.9,29.98,NNE,12,0.0,0.0,40,0.00,,---,0.00,VWS V14.00,2013-01-13 11:12:00,
2013-01-13 04:17:00,15.3,-4.7,29.98,NNE,12,0.0,0.0,40,0.00,,---,0.00,VWS V14.00,2013-01-13 11:17:00,
2013-01-13 04:22:00,15.3,-4.2,29.98,NNE,12,0.0,0.0,41,0.00,,---,0.00,VWS V14.00,2013-01-13 11:22:00,
2013-01-13 04:27:00,15.4,-4.0,29.98,NNE,12,0.0,0.0,41,0.00,,---,0.00,VWS V14.00,2013-01-13 11:27:00,
2013-01-13 04:32:00,15.4,-4.0,29.98,NNE,12,0.0,0.0,41,0.00,,---,0.00,VWS V14.00,2013-01-13 11:32:00,
2013-01-13 04:37:00,15.4,-4.0,29.98,NNE,12,0.0,0.0,41,0.00,,---,0.00,VWS V14.00,2013-01-13 11:37:00,
2013-01-13 04:42:00,15.4,-4.0,29.98,NNE,12,0.0,0.0,41,0.00,,---,0.00,VWS V14.00,2013-01-13 11:42:00,
2013-01-13 04:47:00,15.1,-4.4,29.98,NNE,12,0.0,0.0,41,0.00,,---,0.00,VWS V14.00,2013-01-13 11:47:00,
2013-01-13 04:52:00,14.9,-4.5,29.98,NNE,12,0.0,0.0,41,0.00,,---,0.00,VWS V14.00,2013-01-13 11:52:00,
2013-01-13 04:57:00,14.4,-5.5,29.98,NNE,12,0.0,0.0,40,0.00,,---,0.00,VWS V14.00,2013-01-13 11:57:00,
2013-01-13 05:02:00,14.0,-5.3,29.98,NNE,12,0.0,0.0,41,0.00,,---,0.00,VWS V14.00,2013-01-13 12:02:00,
2013-01-13 05:07:00,13.6,-5.7,29.98,NNE,12,0.0,0.0,41,0.00,,---,0.00,VWS V14.00,2013-01-13 12:07:00,
2013-01-13 05:12:00,13.6,-5.7,29.98,NNE,12,0.0,0.0,41,0.00,,---,0.00,VWS V14.00,2013-01-13 12:12:00,
2013-01-13 05:17:00,14.0,-4.8,29.98,NNE,12,0.0,0.0,42,0.00,,---,0.00,VWS V14.00,2013-01-13 12:17:00,
2013-01-13 05:22:00,14.4,-4.5,29.98,NNE,12,0.0,0.0,42,0.00,,---,0.00,VWS V14.00,2013-01-13 12:22:00,
2013-01-13 05:27:00,14.7,-3.7,29.98,NNE,12,0.0,0.0,43,0.00,,---,0.00,VWS V14.00,2013-01-13 12:27:00,
2013-01-13 05:32:00,14.7,-3.7,29.98,NNE,12,0.0,0.0,43,0.00,,---,0.00,VWS V14.00,2013-01-13 12:32:00,
2013-01-13 05:37:00,14.5,-3.9,29.98,NNE,12,0.0,0.0,43,0.00,,---,0.00,VWS V14.00,2013-01-13 12:37:00,
2013-01-13 05:42:00,14.5,-3.9,29.98,NNE,12,0.0,0.0,43,0.00,,---,0.00,VWS V14.00,2013-01-13 12:42:00,
2013-01-13 05:47:00,14.4,-4.0,29.98,NNE,12,0.0,0.0,43,0.00,,---,0.00,VWS V14.00,2013-01-13 12:47:00,
2013-01-13 05:52:00,14.2,-4.2,29.98,NNE,12,0.0,0.0,43,0.00,,---,0.00,VWS V14.00,2013-01-13 12:52:00,
2013-01-13 05:57:00,14.2,-4.2,29.98,NNE,12,0.0,0.0,43,0.00,,---,0.00,VWS V14.00,2013-01-13 12:57:00,
2013-01-13 06:02:00,14.0,-3.9,29.98,NNE,12,0.0,0.0,44,0.00,,---,0.00,VWS V14.00,2013-01-13 13:02:00,
2013-01-13 06:07:00,13.8,-4.1,29.98,NNE,12,0.0,0.0,44,0.00,,---,0.00,VWS V14.00,2013-01-13 13:07:00,
2013-01-13 06:12:00,13.8,-4.1,29.98,NNE,12,0.0,0.0,44,0.00,,---,0.00,VWS V14.00,2013-01-13 13:12:00,
2013-01-13 06:17:00,13.8,-4.1,29.98,NNE,12,0.0,0.0,44,0.00,,---,0.00,VWS V14.00,2013-01-13 13:17:00,
2013-01-13 06:22:00,14.0,-3.9,29.98,NNE,12,0.0,0.0,44,0.00,,---,0.00,VWS V14.00,2013-01-13 13:22:00,
2013-01-13 06:27:00,14.0,-3.9,29.98,NNE,12,0.0,0.0,44,0.00,,---,0.00,VWS V14.00,2013-01-13 13:27:00,
2013-01-13 06:32:00,13.8,-4.1,29.98,NNE,12,0.0,0.0,44,0.00,,---,0.00,VWS V14.00,2013-01-13 13:32:00,
2013-01-13 06:37:00,13.8,-4.1,29.98,NNE,12,0.0,0.0,44,0.00,,---,0.00,VWS V14.00,2013-01-13 13:37:00,
2013-01-13 06:42:00,13.8,-4.1,29.98,NNE,12,0.0,0.0,44,0.00,,---,0.00,VWS V14.00,2013-01-13 13:42:00,
2013-01-13 06:47:00,13.6,-4.2,29.98,NNE,12,0.0,0.0,44,0.00,,---,0.00,VWS V14.00,2013-01-13 13:47:00,
2013-01-13 06:52:00,13.5,-4.4,29.98,NNE,12,0.0,0.0,44,0.00,,---,0.00,VWS V14.00,2013-01-13 13:52:00,
2013-01-13 06:57:00,13.3,-4.6,29.98,NNE,12,0.0,0.0,44,0.00,,---,0.00,VWS V14.00,2013-01-13 13:57:00,
2013-01-13 07:02:00,12.9,-4.9,29.98,NNE,12,0.0,0.0,44,0.00,,---,0.00,VWS V14.00,2013-01-13 14:02:00,
2013-01-13 07:07:00,12.9,-4.9,29.98,NNE,12,0.0,0.0,44,0.00,,---,0.00,VWS V14.00,2013-01-13 14:07:00,
2013-01-13 07:12:00,13.1,-4.7,29.98,NNE,12,0.0,0.0,44,0.00,,---,0.00,VWS V14.00,2013-01-13 14:12:00,
2013-01-13 07:17:00,13.1,-4.7,29.98,NNE,12,0.0,0.0,44,0.00,,---,0.00,VWS V14.00,2013-01-13 14:17:00,
2013-01-13 07:22:00,12.9,-4.9,29.98,NNE,12,0.0,0.0,44,0.00,,---,0.00,VWS V14.00,2013-01-13 14:22:00,
2013-01-13 07:27:00,13.3,-4.6,29.98,NNE,12,0.0,0.0,44,0.00,,---,0.00,VWS V14.00,2013-01-13 14:27:00,
2013-01-13 07:32:00,13.3,-4.6,29.98,NNE,12,0.0,0.0,44,0.00,,---,0.00,VWS V14.00,2013-01-13 14:32:00,
2013-01-13 07:37:00,13.3,-4.6,29.98,NNE,12,0.0,0.0,44,0.00,,---,0.00,VWS V14.00,2013-01-13 14:37:00,
2013-01-13 07:42:00,13.3,-4.6,29.98,NNE,12,0.0,0.0,44,0.00,,---,0.00,VWS V14.00,2013-01-13 14:42:00,
2013-01-13 07:47:00,13.3,-4.6,29.98,NNE,12,0.0,0.0,44,0.00,,---,0.00,VWS V14.00,2013-01-13 14:47:00,
2013-01-13 07:52:00,13.3,-4.6,29.98,NNE,12,0.0,0.0,44,0.00,,---,0.00,VWS V14.00,2013-01-13 14:52:00,
2013-01-13 07:57:00,13.5,-4.4,29.98,NNE,12,0.0,0.0,44,0.00,,---,0.00,VWS V14.00,2013-01-13 14:57:00,
2013-01-13 08:02:00,13.6,-4.2,29.98,NNE,12,0.0,0.0,44,0.00,,---,0.00,VWS V14.00,2013-01-13 15:02:00,
2013-01-13 08:07:00,14.5,-2.9,29.98,NNE,12,0.0,0.0,45,0.00,,---,0.00,VWS V14.00,2013-01-13 15:07:00,
2013-01-13 08:12:00,16.2,-1.4,29.98,NNE,12,0.0,0.0,45,0.00,,---,0.00,VWS V14.00,2013-01-13 15:12:00,
2013-01-13 08:17:00,18.1,0.4,29.98,NNE,12,0.0,0.0,45,0.00,,---,0.00,VWS V14.00,2013-01-13 15:17:00,
2013-01-13 08:22:00,19.4,0.6,29.98,NNE,12,0.0,0.0,43,0.00,,---,0.00,VWS V14.00,2013-01-13 15:22:00,
2013-01-13 08:27:00,20.1,0.7,30.01,NNE,12,0.0,0.0,42,0.00,,---,0.00,VWS V14.00,2013-01-13 15:27:00,
2013-01-13 08:32:00,20.7,0.2,30.01,NNE,12,0.0,0.0,40,0.00,,---,0.00,VWS V14.00,2013-01-13 15:32:00,
2013-01-13 08:37:00,21.2,-0.4,30.01,NNE,12,0.0,0.0,38,0.00,,---,0.00,VWS V14.00,2013-01-13 15:37:00,
2013-01-13 08:42:00,21.7,-1.1,30.01,NNE,12,0.0,0.0,36,0.00,,---,0.00,VWS V14.00,2013-01-13 15:42:00,
2013-01-13 08:47:00,22.3,-0.6,30.01,NNE,12,0.0,0.0,36,0.00,,---,0.00,VWS V14.00,2013-01-13 15:47:00,
2013-01-13 08:52:00,22.8,0.5,30.01,NNE,12,0.0,0.0,37,0.00,,---,0.00,VWS V14.00,2013-01-13 15:52:00,
2013-01-13 08:57:00,23.7,0.7,30.01,NNE,12,0.0,0.0,36,0.00,,---,0.00,VWS V14.00,2013-01-13 15:57:00,
2013-01-13 09:02:00,24.3,1.2,30.01,NNE,12,0.0,0.0,36,0.00,,---,0.00,VWS V14.00,2013-01-13 16:02:00,
2013-01-13 09:07:00,24.6,0.9,30.01,NNE,12,0.0,0.0,35,0.00,,---,0.00,VWS V14.00,2013-01-13 16:07:00,
2013-01-13 09:12:00,25.0,0.6,30.01,NNE,12,0.0,0.0,34,0.00,,---,0.00,VWS V14.00,2013-01-13 16:12:00,
2013-01-13 09:17:00,25.5,1.1,30.01,NNE,12,0.0,0.0,34,0.00,,---,0.00,VWS V14.00,2013-01-13 16:17:00,
2013-01-13 09:22:00,26.1,1.5,30.01,NNE,12,2.7,2.7,34,0.00,,---,0.00,VWS V14.00,2013-01-13 16:22:00,
2013-01-13 09:27:00,26.4,1.2,30.01,NNE,12,3.6,3.6,33,0.00,,---,0.00,VWS V14.00,2013-01-13 16:27:00,
2013-01-13 09:32:00,26.8,1.5,30.01,NNE,12,3.1,3.1,33,0.00,,---,0.00,VWS V14.00,2013-01-13 16:32:00,
2013-01-13 09:37:00,27.1,1.2,30.01,NNE,12,0.0,0.0,32,0.00,,---,0.00,VWS V14.00,2013-01-13 16:37:00,
2013-01-13 09:42:00,27.7,1.7,30.01,NNE,12,0.0,0.0,32,0.00,,---,0.00,VWS V14.00,2013-01-13 16:42:00,
2013-01-13 09:47:00,27.9,1.2,30.01,NNE,12,3.1,3.1,31,0.00,,---,0.00,VWS V14.00,2013-01-13 16:47:00,
2013-01-13 09:52:00,28.4,1.6,30.01,NNE,12,2.2,2.2,31,0.00,,---,0.00,VWS V14.00,2013-01-13 16:52:00,
2013-01-13 09:57:00,28.4,1.6,30.01,NNE,19,2.7,2.7,31,0.00,,---,0.00,VWS V14.00,2013-01-13 16:57:00,
2013-01-13 10:02:00,28.9,1.4,30.01,North,7,4.9,4.9,30,0.00,,---,0.00,VWS V14.00,2013-01-13 17:02:00,
2013-01-13 10:07:00,29.5,1.9,30.01,North,6,3.6,3.6,30,0.00,,---,0.00,VWS V14.00,2013-01-13 17:07:00,
2013-01-13 10:12:00,30.0,0.9,30.01,North,6,3.1,3.1,28,0.00,,---,0.00,VWS V14.00,2013-01-13 17:12:00,
2013-01-13 10:17:00,30.4,1.2,30.01,NNE,19,2.7,2.7,28,0.00,,---,0.00,VWS V14.00,2013-01-13 17:17:00,
2013-01-13 10:22:00,31.1,-0.6,30.01,NE,40,2.7,4.0,25,0.00,,---,0.00,VWS V14.00,2013-01-13 17:22:00,
2013-01-13 10:27:00,31.5,-0.3,30.01,North,7,4.0,4.0,25,0.00,,---,0.00,VWS V14.00,2013-01-13 17:27:00,
2013-01-13 10:32:00,31.8,0.0,30.01,North,0,5.8,5.8,25,0.00,,---,0.00,VWS V14.00,2013-01-13 17:32:00,
2013-01-13 10:37:00,32.0,0.2,30.01,North,5,3.6,4.0,25,0.00,,---,0.00,VWS V14.00,2013-01-13 17:37:00,
2013-01-13 10:42:00,32.2,0.3,29.98,NNE,19,2.7,4.0,25,0.00,,---,0.00,VWS V14.00,2013-01-13 17:42:00,
2013-01-13 10:47:00,32.5,0.6,29.98,NNE,16,2.7,2.7,25,0.00,,---,0.00,VWS V14.00,2013-01-13 17:47:00,
2013-01-13 10:52:00,33.1,1.1,29.98,NNE,16,3.6,3.6,25,0.00,,---,0.00,VWS V14.00,2013-01-13 17:52:00,
2013-01-13 10:57:00,33.6,-0.2,29.98,North,0,4.9,4.9,23,0.00,,---,0.00,VWS V14.00,2013-01-13 17:57:00,
2013-01-13 11:02:00,33.8,-1.0,29.98,North,0,3.1,3.1,22,0.00,,---,0.00,VWS V14.00,2013-01-13 18:02:00,
2013-01-13 11:07:00,34.0,-0.9,29.98,North,8,0.0,2.2,22,0.00,,---,0.00,VWS V14.00,2013-01-13 18:07:00,
2013-01-13 11:12:00,34.2,-0.7,29.98,NNW,343,4.5,4.5,22,0.00,,---,0.00,VWS V14.00,2013-01-13 18:12:00,
2013-01-13 11:17:00,34.3,-0.6,29.98,North,357,2.2,2.7,22,0.00,,---,0.00,VWS V14.00,2013-01-13 18:17:00,
2013-01-13 11:22:00,34.7,-0.2,29.98,North,0,2.7,4.0,22,0.00,,---,0.00,VWS V14.00,2013-01-13 18:22:00,
2013-01-13 11:28:00,35.8,0.7,29.98,North,0,4.0,5.4,22,0.00,,---,0.00,VWS V14.00,2013-01-13 18:28:00,
2013-01-13 11:33:00,36.3,1.1,29.98,North,2,3.6,5.4,22,0.00,,---,0.00,VWS V14.00,2013-01-13 18:33:00,
2013-01-13 11:42:00,36.9,1.6,29.98,North,0,2.7,4.0,22,0.00,,---,0.00,VWS V14.00,2013-01-13 18:42:00,
2013-01-13 11:51:00,37.0,1.7,29.98,North,0,3.1,5.8,22,0.00,,---,0.00,VWS V14.00,2013-01-13 18:51:00,
2013-01-13 12:01:00,37.8,1.4,29.95,NE,40,3.6,6.3,21,0.00,,---,0.00,VWS V14.00,2013-01-13 19:01:00,
2013-01-13 12:06:00,37.9,1.5,29.95,North,0,2.2,3.1,21,0.00,,---,0.00,VWS V14.00,2013-01-13 19:06:00,
2013-01-13 12:11:00,38.5,2.0,29.95,North,353,4.0,5.8,21,0.00,,---,0.00,VWS V14.00,2013-01-13 19:11:00,
2013-01-13 12:16:00,38.7,2.1,29.95,North,9,6.3,6.3,21,0.00,,---,0.00,VWS V14.00,2013-01-13 19:16:00,
2013-01-13 12:21:00,38.7,2.1,29.95,North,353,3.6,4.9,21,0.00,,---,0.00,VWS V14.00,2013-01-13 19:21:00,
2013-01-13 12:26:00,38.8,2.3,29.95,NNW,340,3.1,4.0,21,0.00,,---,0.00,VWS V14.00,2013-01-13 19:26:00,
2013-01-13 12:31:00,39.0,2.4,29.95,NE,36,3.1,5.8,21,0.00,,---,0.00,VWS V14.00,2013-01-13 19:31:00,
2013-01-13 12:36:00,39.4,2.7,29.95,North,357,2.7,3.1,21,0.00,,---,0.00,VWS V14.00,2013-01-13 19:36:00,
2013-01-13 12:41:00,40.1,3.3,29.95,North,4,4.0,5.4,21,0.00,,---,0.00,VWS V14.00,2013-01-13 19:41:00,
2013-01-13 12:46:00,40.6,3.8,29.95,North,6,3.6,4.9,21,0.00,,---,0.00,VWS V14.00,2013-01-13 19:46:00,
2013-01-13 12:51:00,40.8,3.9,29.95,NNE,23,3.1,3.1,21,0.00,,---,0.00,VWS V14.00,2013-01-13 19:51:00,
2013-01-13 12:56:00,40.6,3.8,29.92,NNE,30,6.3,6.3,21,0.00,,---,0.00,VWS V14.00,2013-01-13 19:56:00,
2013-01-13 13:01:00,40.3,3.5,29.92,NE,48,5.8,5.8,21,0.00,,---,0.00,VWS V14.00,2013-01-13 20:01:00,
2013-01-13 13:06:00,40.3,3.5,29.92,NE,34,3.1,4.0,21,0.00,,---,0.00,VWS V14.00,2013-01-13 20:06:00,
2013-01-13 13:11:00,40.6,3.8,29.92,NE,35,3.6,4.0,21,0.00,,---,0.00,VWS V14.00,2013-01-13 20:11:00,
2013-01-13 13:16:00,40.8,3.9,29.92,NE,53,0.0,3.1,21,0.00,,---,0.00,VWS V14.00,2013-01-13 20:16:00,
2013-01-13 13:21:00,40.8,3.9,29.92,NE,56,2.7,3.1,21,0.00,,---,0.00,VWS V14.00,2013-01-13 20:21:00,
2013-01-13 13:26:00,40.6,3.8,29.92,ESE,119,4.0,4.9,21,0.00,,---,0.00,VWS V14.00,2013-01-13 20:26:00,
2013-01-13 13:31:00,40.8,3.9,29.92,ESE,111,3.1,3.1,21,0.00,,---,0.00,VWS V14.00,2013-01-13 20:31:00,
2013-01-13 13:36:00,40.8,3.9,29.92,East,90,2.2,2.7,21,0.00,,---,0.00,VWS V14.00,2013-01-13 20:36:00,
2013-01-13 13:41:00,40.6,3.8,29.92,ESE,106,2.7,2.7,21,0.00,,---,0.00,VWS V14.00,2013-01-13 20:41:00,
2013-01-13 13:46:00,40.6,3.8,29.92,East,91,2.2,4.0,21,0.00,,---,0.00,VWS V14.00,2013-01-13 20:46:00,
2013-01-13 13:51:00,41.4,4.4,29.92,NNE,24,4.0,4.0,21,0.00,,---,0.00,VWS V14.00,2013-01-13 20:51:00,
2013-01-13 13:56:00,42.1,5.0,29.92,NNE,18,0.0,2.7,21,0.00,,---,0.00,VWS V14.00,2013-01-13 20:56:00,
2013-01-13 14:01:00,42.3,5.1,29.92,NNE,19,2.7,2.7,21,0.00,,---,0.00,VWS V14.00,2013-01-13 21:01:00,
2013-01-13 14:06:00,42.1,5.0,29.92,NE,51,3.6,3.6,21,0.00,,---,0.00,VWS V14.00,2013-01-13 21:06:00,
2013-01-13 14:11:00,43.2,4.8,29.92,East,83,2.7,2.7,20,0.00,,---,0.00,VWS V14.00,2013-01-13 21:11:00,
2013-01-13 14:16:00,43.3,5.0,29.92,East,96,3.1,3.6,20,0.00,,---,0.00,VWS V14.00,2013-01-13 21:16:00,
2013-01-13 14:21:00,42.6,5.4,29.92,East,93,3.1,3.6,21,0.00,,---,0.00,VWS V14.00,2013-01-13 21:21:00,
2013-01-13 14:26:00,42.6,5.4,29.92,NNE,12,4.0,5.8,21,0.00,,---,0.00,VWS V14.00,2013-01-13 21:26:00,
2013-01-13 14:31:00,42.6,5.4,29.92,North,10,2.7,5.4,21,0.00,,---,0.00,VWS V14.00,2013-01-13 21:31:00,
2013-01-13 14:36:00,42.3,5.1,29.92,North,9,4.0,4.0,21,0.00,,---,0.00,VWS V14.00,2013-01-13 21:36:00,
2013-01-13 14:41:00,41.7,4.7,29.92,North,11,2.2,2.7,21,0.00,,---,0.00,VWS V14.00,2013-01-13 21:41:00,
2013-01-13 14:46:00,41.2,4.2,29.92,North,6,4.9,7.6,21,0.00,,---,0.00,VWS V14.00,2013-01-13 21:46:00,
2013-01-13 14:51:00,40.6,3.8,29.92,North,2,3.1,6.3,21,0.00,,---,0.00,VWS V14.00,2013-01-13 21:51:00,
2013-01-13 14:56:00,40.1,3.3,29.92,NE,41,5.8,5.8,21,0.00,,---,0.00,VWS V14.00,2013-01-13 21:56:00,
2013-01-13 15:01:00,39.9,3.2,29.92,NNW,348,6.3,6.3,21,0.00,,---,0.00,VWS V14.00,2013-01-13 22:01:00,
2013-01-13 15:06:00,40.5,3.6,29.92,North,3,4.0,4.0,21,0.00,,---,0.00,VWS V14.00,2013-01-13 22:06:00,
2013-01-13 15:11:00,40.5,3.6,29.92,North,1,5.8,5.8,21,0.00,,---,0.00,VWS V14.00,2013-01-13 22:11:00,
2013-01-13 15:16:00,39.9,3.2,29.92,NE,46,3.6,5.8,21,0.00,,---,0.00,VWS V14.00,2013-01-13 22:16:00,
2013-01-13 15:21:00,39.7,3.0,29.92,NNE,15,5.8,5.8,21,0.00,,---,0.00,VWS V14.00,2013-01-13 22:21:00,
2013-01-13 15:26:00,39.0,2.4,29.92,NNW,340,5.8,8.3,21,0.00,,---,0.00,VWS V14.00,2013-01-13 22:26:00,
2013-01-13 15:31:00,38.5,2.0,29.92,NNW,346,4.9,5.8,21,0.00,,---,0.00,VWS V14.00,2013-01-13 22:31:00,
2013-01-13 15:36:00,37.6,1.2,29.92,North,4,3.6,7.6,21,0.00,,---,0.00,VWS V14.00,2013-01-13 22:36:00,
2013-01-13 15:41:00,36.9,1.6,29.92,North,357,5.4,7.6,22,0.00,,---,0.00,VWS V14.00,2013-01-13 22:41:00,
2013-01-13 15:46:00,36.3,1.1,29.92,North,353,5.4,5.4,22,0.00,,---,0.00,VWS V14.00,2013-01-13 22:46:00,
2013-01-13 15:51:00,36.1,1.0,29.92,North,11,5.4,8.3,22,0.00,,---,0.00,VWS V14.00,2013-01-13 22:51:00,
2013-01-13 15:56:00,35.8,0.7,29.92,North,0,4.9,5.8,22,0.00,,---,0.00,VWS V14.00,2013-01-13 22:56:00,
2013-01-13 16:01:00,35.6,0.5,29.92,North,0,6.3,6.3,22,0.00,,---,0.00,VWS V14.00,2013-01-13 23:01:00,
2013-01-13 16:06:00,35.1,0.1,29.92,North,357,4.9,5.8,22,0.00,,---,0.00,VWS V14.00,2013-01-13 23:06:00,
2013-01-13 16:11:00,34.9,-0.1,29.92,NNE,22,5.8,6.3,22,0.00,,---,0.00,VWS V14.00,2013-01-13 23:11:00,
2013-01-13 16:16:00,34.7,-0.2,29.92,North,357,5.8,6.3,22,0.00,,---,0.00,VWS V14.00,2013-01-13 23:16:00,
2013-01-13 16:21:00,34.3,-0.6,29.92,NNW,345,2.2,4.0,22,0.00,,---,0.00,VWS V14.00,2013-01-13 23:21:00,
2013-01-13 16:26:00,34.3,-0.6,29.92,North,0,4.9,4.9,22,0.00,,---,0.00,VWS V14.00,2013-01-13 23:26:00,
2013-01-13 16:31:00,34.2,-0.7,29.92,North,0,3.6,4.0,22,0.00,,---,0.00,VWS V14.00,2013-01-13 23:31:00,
2013-01-13 16:36:00,34.0,-0.9,29.92,NNE,14,4.0,5.8,22,0.00,,---,0.00,VWS V14.00,2013-01-13 23:36:00,
2013-01-13 16:41:00,33.8,-1.0,29.92,NNE,13,3.6,4.9,22,0.00,,---,0.00,VWS V14.00,2013-01-13 23:41:00,
2013-01-13 16:46:00,33.4,-0.4,29.92,NNE,30,3.6,5.8,23,0.00,,---,0.00,VWS V14.00,2013-01-13 23:46:00,
2013-01-13 16:51:00,33.1,-0.7,29.92,NNE,18,4.0,4.9,23,0.00,,---,0.00,VWS V14.00,2013-01-13 23:51:00,
2013-01-13 16:56:00,32.9,-0.8,29.92,NNE,16,3.6,3.6,23,0.00,,---,0.00,VWS V14.00,2013-01-13 23:56:00,
2013-01-13 17:01:00,32.7,-1.0,29.92,North,353,3.6,4.0,23,0.00,,---,0.00,VWS V14.00,2013-01-14 00:01:00,
2013-01-13 17:06:00,32.7,-1.0,29.92,North,353,3.6,3.6,23,0.00,,---,0.00,VWS V14.00,2013-01-14 00:06:00,
2013-01-13 17:11:00,32.5,-1.1,29.92,North,7,5.4,5.4,23,0.00,,---,0.00,VWS V14.00,2013-01-14 00:11:00,
2013-01-13 17:16:00,32.4,-1.3,29.92,North,1,2.7,3.1,23,0.00,,---,0.00,VWS V14.00,2013-01-14 00:16:00,
2013-01-13 17:21:00,32.2,-1.4,29.92,North,1,2.7,2.7,23,0.00,,---,0.00,VWS V14.00,2013-01-14 00:21:00,
2013-01-13 17:26:00,31.8,-1.8,29.92,North,1,3.1,3.1,23,0.00,,---,0.00,VWS V14.00,2013-01-14 00:26:00,
2013-01-13 17:31:00,31.1,-2.4,29.92,North,9,3.1,4.9,23,0.00,,---,0.00,VWS V14.00,2013-01-14 00:31:00,
2013-01-13 17:36:00,30.6,-2.8,29.92,NNE,12,2.7,4.0,23,0.00,,---,0.00,VWS V14.00,2013-01-14 00:36:00,
2013-01-13 17:41:00,30.2,-3.1,29.92,NNE,19,2.2,2.7,23,0.00,,---,0.00,VWS V14.00,2013-01-14 00:41:00,
2013-01-13 17:46:00,29.8,-3.4,29.92,NNE,19,2.7,2.7,23,0.00,,---,0.00,VWS V14.00,2013-01-14 00:46:00,
2013-01-13 17:51:00,29.5,-3.7,29.92,NNE,19,0.0,2.2,23,0.00,,---,0.00,VWS V14.00,2013-01-14 00:51:00,
2013-01-13 17:56:00,29.1,-4.1,29.92,NNE,19,0.0,0.0,23,0.00,,---,0.00,VWS V14.00,2013-01-14 00:56:00,
2013-01-13 18:01:00,28.8,-4.3,29.92,NNE,19,3.6,3.6,23,0.00,,---,0.00,VWS V14.00,2013-01-14 01:01:00,
2013-01-13 18:06:00,28.6,-4.5,29.92,NNE,19,0.0,0.0,23,0.00,,---,0.00,VWS V14.00,2013-01-14 01:06:00,
2013-01-13 18:11:00,28.4,-4.7,29.92,NNE,19,2.7,2.7,23,0.00,,---,0.00,VWS V14.00,2013-01-14 01:11:00,
2013-01-13 18:16:00,28.2,-4.8,29.92,NNE,19,0.0,0.0,23,0.00,,---,0.00,VWS V14.00,2013-01-14 01:16:00,
2013-01-13 18:21:00,28.0,-5.0,29.92,NNE,19,0.0,0.0,23,0.00,,---,0.00,VWS V14.00,2013-01-14 01:21:00,
2013-01-13 18:26:00,27.7,-5.3,29.92,NNE,19,0.0,0.0,23,0.00,,---,0.00,VWS V14.00,2013-01-14 01:26:00,
2013-01-13 18:31:00,27.1,-5.7,29.92,NNE,19,0.0,2.2,23,0.00,,---,0.00,VWS V14.00,2013-01-14 01:31:00,
2013-01-13 18:36:00,27.0,-5.9,29.92,NNE,19,0.0,3.1,23,0.00,,---,0.00,VWS V14.00,2013-01-14 01:36:00,
2013-01-13 18:41:00,26.8,-6.0,29.95,NNE,19,0.0,2.7,23,0.00,,---,0.00,VWS V14.00,2013-01-14 01:41:00,
2013-01-13 18:46:00,26.6,-5.3,29.95,NNE,19,2.2,2.2,24,0.00,,---,0.00,VWS V14.00,2013-01-14 01:46:00,
2013-01-13 18:51:00,26.2,-5.6,29.95,NNE,19,0.0,0.0,24,0.00,,---,0.00,VWS V14.00,2013-01-14 01:51:00,
2013-01-13 18:56:00,26.1,-5.8,29.95,NNE,19,3.6,3.6,24,0.00,,---,0.00,VWS V14.00,2013-01-14 01:56:00,
2013-01-13 19:01:00,25.5,-6.2,29.95,NNE,19,0.0,0.0,24,0.00,,---,0.00,VWS V14.00,2013-01-14 02:01:00,
2013-01-13 19:06:00,25.3,-6.4,29.95,NNE,20,3.1,3.1,24,0.00,,---,0.00,VWS V14.00,2013-01-14 02:06:00,
2013-01-13 19:11:00,25.2,-6.6,29.95,NNE,21,0.0,2.7,24,0.00,,---,0.00,VWS V14.00,2013-01-14 02:11:00,
2013-01-13 19:16:00,24.8,-6.9,29.95,NNE,25,3.1,3.1,24,0.00,,---,0.00,VWS V14.00,2013-01-14 02:16:00,
2013-01-13 19:21:00,24.6,-7.0,29.95,NE,41,2.2,2.2,24,0.00,,---,0.00,VWS V14.00,2013-01-14 02:21:00,
2013-01-13 19:26:00,24.4,-7.2,29.95,NE,42,2.2,2.2,24,0.00,,---,0.00,VWS V14.00,2013-01-14 02:26:00,
2013-01-13 19:31:00,24.4,-7.2,29.95,NE,42,2.2,2.7,24,0.00,,---,0.00,VWS V14.00,2013-01-14 02:31:00,
2013-01-13 19:36:00,24.1,-7.5,29.95,NE,43,0.0,0.0,24,0.00,,---,0.00,VWS V14.00,2013-01-14 02:36:00,
2013-01-13 19:41:00,23.7,-7.8,29.95,NE,43,2.7,4.0,24,0.00,,---,0.00,VWS V14.00,2013-01-14 02:41:00,
2013-01-13 19:46:00,23.7,-7.8,29.95,NE,43,0.0,0.0,24,0.00,,---,0.00,VWS V14.00,2013-01-14 02:46:00,
2013-01-13 19:51:00,23.7,-7.8,29.95,NE,43,3.6,3.6,24,0.00,,---,0.00,VWS V14.00,2013-01-14 02:51:00,
2013-01-13 19:56:00,23.5,-7.9,29.95,NE,43,3.6,3.6,24,0.00,,---,0.00,VWS V14.00,2013-01-14 02:56:00,
2013-01-13 20:01:00,23.5,-7.9,29.95,NE,43,0.0,0.0,24,0.00,,---,0.00,VWS V14.00,2013-01-14 03:01:00,
2013-01-13 20:06:00,23.4,-8.1,29.95,NE,43,2.7,2.7,24,0.00,,---,0.00,VWS V14.00,2013-01-14 03:06:00,
2013-01-13 20:11:00,23.0,-7.6,29.95,NE,43,0.0,0.0,25,0.00,,---,0.00,VWS V14.00,2013-01-14 03:11:00,
2013-01-13 20:16:00,22.8,-7.7,29.95,NE,43,0.0,0.0,25,0.00,,---,0.00,VWS V14.00,2013-01-14 03:16:00,
2013-01-13 20:21:00,22.5,-8.0,29.95,NE,43,0.0,0.0,25,0.00,,---,0.00,VWS V14.00,2013-01-14 03:21:00,
2013-01-13 20:26:00,21.9,-8.5,29.95,NE,43,0.0,0.0,25,0.00,,---,0.00,VWS V14.00,2013-01-14 03:26:00,
2013-01-13 20:31:00,21.6,-8.8,29.95,NE,43,0.0,0.0,25,0.00,,---,0.00,VWS V14.00,2013-01-14 03:31:00,
2013-01-13 20:36:00,21.4,-9.0,29.95,NE,43,0.0,0.0,25,0.00,,---,0.00,VWS V14.00,2013-01-14 03:36:00,
2013-01-13 20:41:00,21.4,-9.0,29.95,NE,39,3.6,3.6,25,0.00,,---,0.00,VWS V14.00,2013-01-14 03:41:00,
2013-01-13 20:46:00,21.7,-8.6,29.95,NNW,343,5.4,5.8,25,0.00,,---,0.00,VWS V14.00,2013-01-14 03:46:00,
2013-01-13 20:51:00,22.1,-8.3,29.95,North,353,2.7,3.1,25,0.00,,---,0.00,VWS V14.00,2013-01-14 03:51:00,
2013-01-13 20:56:00,22.3,-8.2,29.95,North,353,2.7,3.6,25,0.00,,---,0.00,VWS V14.00,2013-01-14 03:56:00,
2013-01-13 21:01:00,22.6,-7.9,29.95,NNE,24,5.4,5.8,25,0.00,,---,0.00,VWS V14.00,2013-01-14 04:01:00,
2013-01-13 21:06:00,23.2,-8.2,29.95,NNE,16,2.7,2.7,24,0.00,,---,0.00,VWS V14.00,2013-01-14 04:06:00,
2013-01-13 21:11:00,23.5,-7.9,29.95,NNE,14,3.6,3.6,24,0.00,,---,0.00,VWS V14.00,2013-01-14 04:11:00,
2013-01-13 21:16:00,23.7,-7.8,29.95,NNE,14,3.6,3.6,24,0.00,,---,0.00,VWS V14.00,2013-01-14 04:16:00,
2013-01-13 21:21:00,23.7,-7.8,29.95,NNE,14,4.9,5.4,24,0.00,,---,0.00,VWS V14.00,2013-01-14 04:21:00,
2013-01-13 21:26:00,23.9,-7.6,29.95,North,357,4.0,4.0,24,0.00,,---,0.00,VWS V14.00,2013-01-14 04:26:00,
2013-01-13 21:31:00,23.9,-7.6,29.95,North,357,2.7,2.7,24,0.00,,---,0.00,VWS V14.00,2013-01-14 04:31:00,
2013-01-13 21:36:00,23.9,-7.6,29.95,North,357,5.4,5.4,24,0.00,,---,0.00,VWS V14.00,2013-01-14 04:36:00,
2013-01-13 21:41:00,23.9,-7.6,29.95,North,357,3.1,3.1,24,0.00,,---,0.00,VWS V14.00,2013-01-14 04:41:00,
2013-01-13 21:46:00,23.7,-7.8,29.95,NE,55,4.9,4.9,24,0.00,,---,0.00,VWS V14.00,2013-01-14 04:46:00,
2013-01-13 21:51:00,23.5,-7.9,29.95,NE,54,3.1,4.0,24,0.00,,---,0.00,VWS V14.00,2013-01-14 04:51:00,
2013-01-13 21:56:00,23.2,-8.2,29.95,North,0,2.2,4.9,24,0.00,,---,0.00,VWS V14.00,2013-01-14 04:56:00,
2013-01-13 22:00:00,23.0,-7.6,29.95,North,357,3.1,3.1,25,0.00,,---,0.00,VWS V14.00,2013-01-14 05:00:00,
2013-01-13 22:01:00,22.8,-7.7,29.95,North,357,2.7,2.7,25,0.00,,---,0.00,VWS V14.00,2013-01-14 05:01:00,
2013-01-13 22:06:00,22.6,-7.9,29.95,North,357,3.6,3.6,25,0.00,,---,0.00,VWS V14.00,2013-01-14 05:06:00,
2013-01-13 22:11:00,22.3,-8.2,29.95,North,357,2.7,2.7,25,0.00,,---,0.00,VWS V14.00,2013-01-14 05:11:00,
2013-01-13 22:16:00,22.1,-8.3,29.95,North,357,0.0,0.0,25,0.00,,---,0.00,VWS V14.00,2013-01-14 05:16:00,
2013-01-13 22:21:00,22.1,-8.3,29.95,North,357,0.0,2.2,25,0.00,,---,0.00,VWS V14.00,2013-01-14 05:21:00,
2013-01-13 22:26:00,21.9,-8.5,29.95,North,357,0.0,0.0,25,0.00,,---,0.00,VWS V14.00,2013-01-14 05:26:00,
2013-01-13 22:31:00,21.9,-8.5,29.95,North,357,0.0,0.0,25,0.00,,---,0.00,VWS V14.00,2013-01-14 05:31:00,
2013-01-13 22:36:00,21.9,-8.5,29.95,North,357,3.1,3.1,25,0.00,,---,0.00,VWS V14.00,2013-01-14 05:36:00,
2013-01-13 22:41:00,21.6,-8.8,29.95,North,357,2.2,2.7,25,0.00,,---,0.00,VWS V14.00,2013-01-14 05:41:00,
2013-01-13 22:46:00,21.4,-9.0,29.95,North,357,2.2,4.0,25,0.00,,---,0.00,VWS V14.00,2013-01-14 05:46:00,
2013-01-13 22:51:00,21.2,-9.1,29.95,North,357,2.2,2.2,25,0.00,,---,0.00,VWS V14.00,2013-01-14 05:51:00,
2013-01-13 22:56:00,21.2,-9.1,29.95,North,357,0.0,0.0,25,0.00,,---,0.00,VWS V14.00,2013-01-14 05:56:00,
2013-01-13 23:01:00,21.2,-9.1,29.95,North,357,2.2,2.7,25,0.00,,---,0.00,VWS V14.00,2013-01-14 06:01:00,
2013-01-13 23:06:00,21.2,-9.1,29.95,North,357,2.2,2.2,25,0.00,,---,0.00,VWS V14.00,2013-01-14 06:06:00,
2013-01-13 23:11:00,21.2,-9.1,29.98,North,357,2.7,2.7,25,0.00,,---,0.00,VWS V14.00,2013-01-14 06:11:00,
2013-01-13 23:16:00,21.2,-7.6,29.98,North,357,0.0,0.0,27,0.00,,---,0.00,VWS V14.00,2013-01-14 06:16:00,
2013-01-13 23:21:00,21.2,-7.6,29.98,North,357,0.0,0.0,27,0.00,,---,0.00,VWS V14.00,2013-01-14 06:21:00,
2013-01-13 23:26:00,21.2,-7.6,29.98,North,357,0.0,0.0,27,0.00,,---,0.00,VWS V14.00,2013-01-14 06:26:00,
2013-01-13 23:31:00,21.2,-7.6,29.98,North,357,0.0,0.0,27,0.00,,---,0.00,VWS V14.00,2013-01-14 06:31:00,
2013-01-13 23:36:00,21.0,-7.7,29.98,North,357,0.0,0.0,27,0.00,,---,0.00,VWS V14.00,2013-01-14 06:36:00,
2013-01-13 23:41:00,20.8,-9.4,29.98,North,357,0.0,0.0,25,0.00,,---,0.00,VWS V14.00,2013-01-14 06:41:00,
2013-01-13 23:46:00,20.8,-9.4,29.98,North,357,0.0,0.0,25,0.00,,---,0.00,VWS V14.00,2013-01-14 06:46:00,
2013-01-13 23:51:00,20.7,-9.6,29.98,North,357,3.1,3.1,25,0.00,,---,0.00,VWS V14.00,2013-01-14 06:51:00,
2013-01-13 23:56:00,20.5,-9.7,29.98,North,357,3.1,3.1,25,0.00,,---,0.00,VWS V14.00,2013-01-14 06:56:00,